HEAT

Details ICAO HEAT (ATZ)
Name ASYUT INTL
Region Egypt
Timezone Africa/Cairo (UTC+2.0)
Plans Departing 13
Arriving 21
Stats Elevation 772 ft / 235 m (AMSL)
Location 27.046508° 31.011982°
Runways 1
Magnetic Variation 4.141° E
Sunrise 2017-12-14 04:38:26 UTC / 2017-12-14 06:38:26 Local
Sunset 2017-12-14 15:05:34 UTC / 2017-12-14 17:05:34 Local
Advertisement - Login to hide

Runways

ID Width Length Bearing (true) Bearing (mag) Surface Threshold Offset Overrun Length
13 148 ft / 45 m 9,910 ft / 3,021 m 129.98° 125.84° Asphalt 0 ft / 0 m 190 ft / 58 m
31 148 ft / 45 m 9,910 ft / 3,021 m 309.99° 305.85° Asphalt 0 ft / 0 m 190 ft / 58 m

Approach Navaids

Runway Type Ident Frequency Range Bearing (true) Bearing (mag) Slope Elevation
31 Localiser IASU 111.30 MHz 18 nm / 33 km 309.98° 305.84° - 744 ft / 227 m (AMSL)
31 Glidescope IASU 111.30 MHz 10 nm / 19 km 309.98° 305.84° 3.00° 815 ft / 248 m (AMSL)
31 DME IASU 111.30 MHz 18 nm / 33 km - - - 815 ft / 248 m (AMSL)

Map

Weather


0- 5 10 15 20 25 30 35+ Temperature / ° C

Clouds and Precipitation
Forecast for 2017-12-14 06:00 UTC. Updated an hour ago

Ground ~20,000 ft ~40,000 ft Winds

METAR

HEAT 140300Z 34006KT CAVOK 10/08 Q1021 NOSIG

TAF

Not found

Frequencies

Tower 118.10 MHz TWR
Warning: Do not use this data for real-world aviation or navigation. No guarantee of current accuracy is given.